Opmeer, Netherlands
Current Conditions -  °F | °C
As of 10:25 PM on Saturday 22 Nov 2014 (Local Time) from EHKD Reporting Station
Haze Haze  
Wind Chill: 46°   Ceiling: 10000
Heat Index: 48°   Visibility: 4mi
Dew Point: 48°   Wind: 6mph
Humidity: 100%   Direction: 160°SSE
Pressure: 30"   Gusts: NA
Location:  52.71°N, 4.94°E
Report Text: EHKD 222125Z AUTO 16005KT 7000 BR OVC100 09/09 Q1016 WHT
Loading
Personal Weather Stations






























Interactive Weather Map New forecast layout! Learn more

10-Day Weather Forecast

Advertisements
Track Severe Weather on mobile